Time;durP1;ratioP1;P1;durP2;ratioP2;P2;SDS_P1;SDS_P2;PMS_P1;PMS_P2;Temp;Humidity;BMP_temperature;BMP_pressure;BME280_temperature;BME280_humidity;BME280_pressure;Samples;Min_cycle;Max_cycle;Signal;HPM_P1;HPM_P2
2021/11/11 00:00:10;;;;;;;;;;;;;;;;;;;;;
2021/11/11 00:19:28;;;;;;;74.30;28.52;;;;;;;0.49;100.00;98450.41;4949470;28;20054;-89
2021/11/11 00:22:43;;;;;;;55.47;22.73;;;;;;;0.75;100.00;98473.13;4983121;28;20473;-88
2021/11/11 00:26:05;;;;;;;49.37;19.80;;;;;;;0.60;100.00;98440.81;4997552;28;20405;-88
2021/11/11 00:29:24;;;;;;;79.18;29.20;;;;;;;0.56;100.00;98468.97;5003323;28;20061;-88
2021/11/11 00:39:31;;;;;;;72.47;26.90;;;;;;;0.76;100.00;98482.75;4996267;28;20042;-88
2021/11/11 00:42:04;;;;;;;60.22;25.77;;;;;;;0.50;100.00;98467.22;5011048;28;20140;-89
2021/11/11 00:44:39;;;;;;;62.97;25.13;;;;;;;0.58;100.00;98472.19;5010796;28;20082;-87
2021/11/11 00:47:41;;;;;;;;;;;;;;;;;;;;;
2021/11/11 00:50:35;;;;;;;61.55;24.85;;;;;;;0.63;100.00;98451.00;5017022;28;20037;-89
2021/11/11 00:53:17;;;;;;;57.60;23.50;;;;;;;0.69;100.00;98447.44;5013044;28;20042;-89
2021/11/11 00:56:07;;;;;;;60.45;24.00;;;;;;;0.70;100.00;98448.25;5009829;28;20529;-89
2021/11/11 00:58:46;;;;;;;57.45;24.50;;;;;;;0.67;100.00;98459.38;4994775;28;20395;-87
2021/11/11 01:01:13;;;;;;;56.88;22.13;;;;;;;0.65;100.00;98450.78;5010268;28;20544;-87
2021/11/11 01:03:42;;;;;;;52.72;22.13;;;;;;;0.56;100.00;98461.78;4993408;28;20537;-87
2021/11/11 01:06:16;;;;;;;65.43;26.40;;;;;;;0.55;100.00;98480.66;5009743;28;20163;-87
2021/11/11 01:08:43;;;;;;;56.83;24.83;;;;;;;0.39;100.00;98458.16;4994940;28;20050;-87
2021/11/11 01:11:13;;;;;;;57.35;24.17;;;;;;;0.43;100.00;98462.00;5007010;28;20142;-87
2021/11/11 01:13:42;;;;;;;61.53;24.90;;;;;;;0.57;100.00;98457.25;5058654;28;20350;-87
2021/11/11 01:16:20;;;;;;;64.32;26.38;;;;;;;0.61;100.00;98471.75;5059630;28;20068;-87
2021/11/11 01:18:47;;;;;;;54.90;24.15;;;;;;;0.67;100.00;98475.34;5059095;28;20110;-88
2021/11/11 01:21:14;;;;;;;62.55;25.27;;;;;;;0.70;100.00;98469.56;5060691;28;20064;-89
2021/11/11 01:23:42;;;;;;;57.47;23.02;;;;;;;0.48;100.00;98429.34;5070809;28;20047;-90
2021/11/11 01:26:09;;;;;;;57.13;23.17;;;;;;;0.67;100.00;98448.69;5069929;28;20067;-89
2021/11/11 01:28:37;;;;;;;56.72;23.35;;;;;;;0.43;100.00;98455.84;5069809;28;20048;-89
2021/11/11 01:31:04;;;;;;;53.40;22.77;;;;;;;0.51;100.00;98460.84;5071679;28;20048;-88
2021/11/11 01:33:32;;;;;;;50.15;21.05;;;;;;;0.29;100.00;98441.94;5065437;28;20579;-88
2021/11/11 01:36:00;;;;;;;47.10;20.88;;;;;;;0.34;100.00;98446.56;5066329;28;20155;-88
2021/11/11 01:38:27;;;;;;;50.17;21.10;;;;;;;0.39;100.00;98455.50;5069718;28;20179;-89
2021/11/11 01:40:59;;;;;;;53.20;23.27;;;;;;;0.38;100.00;98440.56;5065176;28;20392;-88
2021/11/11 01:43:31;;;;;;;53.03;23.17;;;;;;;0.44;100.00;98450.28;5073022;28;20045;-87
2021/11/11 01:45:59;;;;;;;47.13;20.75;;;;;;;0.18;100.00;98448.03;5057283;28;20155;-88
2021/11/11 01:48:27;;;;;;;43.03;20.27;;;;;;;0.46;100.00;98458.06;5057673;28;20053;-87
2021/11/11 01:50:54;;;;;;;46.35;21.23;;;;;;;0.40;100.00;98453.66;5057325;28;20503;-86
2021/11/11 01:53:21;;;;;;;49.22;21.83;;;;;;;0.54;100.00;98455.84;5057572;28;20559;-90
2021/11/11 01:55:49;;;;;;;48.53;20.50;;;;;;;0.57;100.00;98454.59;5057862;28;20152;-87
2021/11/11 01:58:17;;;;;;;47.72;20.30;;;;;;;0.64;100.00;98444.66;5058962;28;20139;-86
2021/11/11 02:00:48;;;;;;;53.35;22.33;;;;;;;0.68;100.00;98452.97;5059790;28;20048;-87
2021/11/11 02:03:15;;;;;;;50.53;21.75;;;;;;;0.54;100.00;98442.53;5061698;28;20059;-88
2021/11/11 02:05:43;;;;;;;49.13;21.83;;;;;;;0.66;100.00;98452.41;5061737;28;20055;-86
2021/11/11 02:08:12;;;;;;;50.90;21.27;;;;;;;0.61;100.00;98445.09;5061840;28;20381;-87
2021/11/11 02:10:40;;;;;;;51.58;21.92;;;;;;;0.45;100.00;98438.59;5059738;28;20056;-88
2021/11/11 02:13:07;;;;;;;50.42;21.00;;;;;;;0.50;100.00;98425.41;5058554;28;20067;-86
2021/11/11 02:15:36;;;;;;;47.75;20.83;;;;;;;0.57;100.00;98435.94;5059051;28;20048;-87
2021/11/11 02:18:07;;;;;;;46.08;21.40;;;;;;;0.60;100.00;98449.63;5060293;28;20052;-85
2021/11/11 02:20:39;;;;;;;45.55;20.73;;;;;;;0.59;100.00;98441.88;5059893;28;20052;-88
2021/11/11 02:23:11;;;;;;;45.33;20.63;;;;;;;0.44;100.00;98417.53;5059787;28;20040;-86
2021/11/11 02:25:39;;;;;;;45.50;19.30;;;;;;;0.53;100.00;98438.28;5059140;28;20056;-88
2021/11/11 02:28:09;;;;;;;44.40;20.17;;;;;;;0.53;100.00;98448.09;5059246;28;20087;-88
2021/11/11 02:30:38;;;;;;;43.30;19.45;;;;;;;0.51;100.00;98445.69;5059559;28;20059;-88
2021/11/11 02:33:13;;;;;;;46.70;20.00;;;;;;;0.45;100.00;98453.78;5059521;28;20071;-86
2021/11/11 02:35:41;;;;;;;42.75;19.65;;;;;;;0.34;100.00;98444.72;5059378;28;20052;-87
2021/11/11 02:38:09;;;;;;;46.88;20.52;;;;;;;0.24;100.00;98447.13;5060754;28;20041;-85
2021/11/11 02:40:36;;;;;;;55.17;24.40;;;;;;;0.14;100.00;98422.13;5062168;28;20098;-86
2021/11/11 02:43:05;;;;;;;47.60;21.77;;;;;;;0.25;100.00;98443.44;5070348;28;20044;-89
2021/11/11 02:45:38;;;;;;;47.58;21.55;;;;;;;0.25;100.00;98438.13;5060648;28;20135;-85
2021/11/11 02:48:07;;;;;;;45.38;21.33;;;;;;;0.30;100.00;98440.09;5057991;28;20569;-86
2021/11/11 02:50:35;;;;;;;44.30;19.67;;;;;;;0.43;100.00;98434.56;5056802;28;20055;-85
2021/11/11 02:53:03;;;;;;;53.40;22.08;;;;;;;0.38;100.00;98429.09;5056555;28;20040;-85
2021/11/11 02:55:30;;;;;;;51.58;21.27;;;;;;;0.35;100.00;98417.06;5056795;28;20056;-85
2021/11/11 02:57:59;;;;;;;46.95;21.23;;;;;;;0.51;100.00;98427.03;5066679;28;20032;-85
2021/11/11 03:00:30;;;;;;;44.03;20.02;;;;;;;0.58;100.00;98430.41;5056606;28;20451;-86
2021/11/11 03:02:57;;;;;;;46.45;20.70;;;;;;;0.56;100.00;98434.34;5056940;28;20500;-85
2021/11/11 03:05:27;;;;;;;52.33;21.05;;;;;;;0.50;100.00;98436.06;5056062;28;20532;-85
2021/11/11 03:07:54;;;;;;;46.63;19.85;;;;;;;0.52;100.00;98441.16;5056567;28;20407;-85
2021/11/11 03:10:25;;;;;;;49.67;20.55;;;;;;;0.51;100.00;98452.88;5057391;28;20334;-85
2021/11/11 03:12:53;;;;;;;45.42;20.40;;;;;;;0.37;100.00;98412.31;5057241;28;20154;-86
2021/11/11 03:15:23;;;;;;;45.35;20.40;;;;;;;0.54;100.00;98445.19;5056637;28;20049;-86
2021/11/11 03:17:50;;;;;;;41.67;19.17;;;;;;;0.46;100.00;98434.91;5056807;28;20182;-86
2021/11/11 03:20:20;;;;;;;39.70;18.63;;;;;;;0.35;100.00;98435.72;5056898;28;20520;-84
2021/11/11 03:22:56;;;;;;;46.28;18.55;;;;;;;0.18;100.00;98413.44;5086822;23;20056;-81
2021/11/11 03:25:42;;;;;;;42.35;17.98;;;;;;;0.24;100.00;98433.00;5095113;28;20070;-81
2021/11/11 03:28:34;;;;;;;37.75;17.08;;;;;;;0.11;100.00;98415.41;5075205;28;20048;-80
2021/11/11 03:31:16;;;;;;;36.17;15.73;;;;;;;0.32;100.00;98424.69;5075588;28;20194;-79
2021/11/11 03:33:53;;;;;;;39.67;16.45;;;;;;;0.43;100.00;98422.06;5093074;28;20040;-79
2021/11/11 03:36:44;;;;;;;41.63;17.73;;;;;;;0.37;100.00;98448.78;5076257;28;20515;-79
2021/11/11 03:39:19;;;;;;;42.65;17.48;;;;;;;0.38;100.00;98432.59;5076018;28;20056;-80
2021/11/11 03:41:58;;;;;;;41.13;18.52;;;;;;;0.29;100.00;98409.16;5076742;28;20419;-81
2021/11/11 03:44:28;;;;;;;37.53;17.58;;;;;;;0.49;100.00;98447.75;5076031;28;20101;-81
2021/11/11 03:47:04;;;;;;;40.05;18.48;;;;;;;0.22;100.00;98422.59;5078334;28;20059;-81
2021/11/11 03:49:55;;;;;;;39.70;18.25;;;;;;;0.30;100.00;98445.41;5076746;28;20087;-81
2021/11/11 03:52:34;;;;;;;38.70;18.02;;;;;;;0.24;100.00;98425.03;5076076;28;20285;-78
2021/11/11 03:55:03;;;;;;;47.88;20.13;;;;;;;0.13;100.00;98441.81;5074273;28;20101;-81
2021/11/11 03:57:39;;;;;;;45.00;19.85;;;;;;;0.19;100.00;98411.59;5076739;28;20047;-82
2021/11/11 04:00:09;;;;;;;37.42;18.40;;;;;;;0.12;100.00;98413.56;5075730;28;20404;-80
2021/11/11 04:02:37;;;;;;;35.92;17.10;;;;;;;0.18;100.00;98410.78;5075852;28;20058;-80
2021/11/11 04:05:05;;;;;;;44.13;18.98;;;;;;;0.24;100.00;98425.84;5093416;28;20583;-79
2021/11/11 04:07:32;;;;;;;39.80;18.65;;;;;;;0.24;100.00;98420.50;5074270;28;20032;-80
2021/11/11 04:10:14;;;;;;;43.47;18.15;;;;;;;0.17;100.00;98397.72;5083034;28;20495;-81
2021/11/11 04:13:03;;;;;;;40.60;18.05;;;;;;;0.34;100.00;98410.09;5072347;28;20041;-82
2021/11/11 04:15:31;;;;;;;38.35;17.55;;;;;;;0.43;100.00;98406.06;5055599;28;20223;-82
2021/11/11 04:17:58;;;;;;;38.47;17.10;;;;;;;0.41;100.00;98400.16;5055919;28;20040;-80
2021/11/11 04:20:26;;;;;;;39.72;18.10;;;;;;;0.33;100.00;98408.50;5054426;28;20075;-81
2021/11/11 04:22:54;;;;;;;40.20;17.40;;;;;;;0.00;100.00;98379.72;5054715;28;20489;-81
2021/11/11 04:25:32;;;;;;;39.17;17.85;;;;;;;0.37;100.00;98422.16;5072532;28;20064;-83
2021/11/11 04:28:08;;;;;;;38.85;17.23;;;;;;;0.35;100.00;98395.75;5055756;28;20142;-80
2021/11/11 04:30:36;;;;;;;42.38;16.85;;;;;;;0.41;100.00;98418.78;5061279;28;20040;-82
2021/11/11 04:33:14;;;;;;;44.80;17.15;;;;;;;0.26;100.00;98377.69;5056373;28;20052;-81
2021/11/11 04:35:47;;;;;;;39.00;16.95;;;;;;;0.32;100.00;98403.38;5072018;28;20107;-81
2021/11/11 04:44:47;;;;;;;41.22;18.40;;;;;;;0.28;100.00;98367.63;5064082;28;20087;-82
2021/11/11 05:03:43;;;;;;;46.05;19.05;;;;;;;0.43;100.00;98391.94;5072594;28;20060;-81
2021/11/11 05:06:11;;;;;;;44.58;17.63;;;;;;;0.33;100.00;98381.06;5055052;28;20156;-81
2021/11/11 05:08:39;;;;;;;39.03;16.67;;;;;;;0.13;100.00;98383.25;5054186;28;20078;-79
2021/11/11 05:11:08;;;;;;;37.38;17.13;;;;;;;0.14;100.00;98395.50;5055460;28;20052;-79
2021/11/11 05:13:36;;;;;;;43.05;18.33;;;;;;;0.13;100.00;98407.19;5054869;28;20040;-79
2021/11/11 05:16:03;;;;;;;55.25;21.60;;;;;;;0.14;100.00;98409.63;5054842;28;20075;-80
2021/11/11 05:18:30;;;;;;;42.67;19.65;;;;;;;0.08;100.00;98397.22;5056517;28;20477;-79
2021/11/11 05:20:59;;;;;;;46.00;20.65;;;;;;;-0.04;100.00;98412.34;5055100;28;20056;-81
2021/11/11 05:23:26;;;;;;;46.25;20.40;;;;;;;-0.07;100.00;98404.81;5053941;28;20468;-79
2021/11/11 05:25:53;;;;;;;43.28;19.58;;;;;;;-0.12;100.00;98416.16;5053202;28;20135;-78
2021/11/11 05:28:20;;;;;;;47.88;20.75;;;;;;;-0.04;100.00;98405.19;5052831;28;20110;-79
2021/11/11 05:30:50;;;;;;;40.47;19.52;;;;;;;0.06;100.00;98404.63;5052975;28;20052;-80
2021/11/11 05:33:17;;;;;;;59.90;24.63;;;;;;;0.13;100.00;98407.19;5053938;28;20052;-79
2021/11/11 05:35:43;;;;;;;89.65;31.25;;;;;;;0.18;100.00;98407.31;5071284;28;20048;-79
2021/11/11 05:38:15;;;;;;;100.43;33.58;;;;;;;0.10;100.00;98405.00;5071892;28;20496;-81
2021/11/11 05:40:41;;;;;;;76.28;29.15;;;;;;;0.13;100.00;98415.19;5055168;28;20143;-81
2021/11/11 05:43:08;;;;;;;124.18;40.63;;;;;;;0.17;100.00;98416.34;5053514;28;20552;-79
2021/11/11 05:45:34;;;;;;;99.95;35.78;;;;;;;-0.07;100.00;98413.63;5053726;28;20056;-81
2021/11/11 05:48:02;;;;;;;81.57;31.20;;;;;;;-0.06;100.00;98419.78;5070201;28;20109;-81
2021/11/11 05:50:29;;;;;;;54.47;22.30;;;;;;;-0.11;100.00;98416.97;5074702;28;20052;-80
2021/11/11 05:52:55;;;;;;;47.88;20.92;;;;;;;-0.21;100.00;98408.75;5073723;28;20048;-81
2021/11/11 05:55:22;;;;;;;40.92;17.98;;;;;;;-0.16;100.00;98414.19;5077155;28;20051;-79
2021/11/11 05:57:49;;;;;;;40.47;18.38;;;;;;;-0.08;100.00;98408.53;5097301;28;20094;-80
2021/11/11 06:00:18;;;;;;;49.67;19.67;;;;;;;-0.10;100.00;98406.09;5096005;28;20056;-80
2021/11/11 06:02:46;;;;;;;42.92;19.23;;;;;;;0.09;100.00;98430.78;5075985;28;20048;-80
2021/11/11 06:05:13;;;;;;;46.20;19.38;;;;;;;0.11;100.00;98420.72;5095568;28;20047;-80
2021/11/11 06:07:39;;;;;;;43.75;19.48;;;;;;;0.29;100.00;98420.63;5078570;28;20070;-79
2021/11/11 06:10:07;;;;;;;40.63;18.48;;;;;;;0.25;100.00;98416.00;5078319;28;20044;-80
2021/11/11 06:12:36;;;;;;;45.05;18.92;;;;;;;0.25;100.00;98424.00;5095163;28;20056;-80
2021/11/11 06:15:04;;;;;;;41.67;19.38;;;;;;;0.23;100.00;98431.41;5077036;28;20561;-80
2021/11/11 06:17:30;;;;;;;51.70;19.10;;;;;;;0.23;100.00;98426.09;5076507;28;20040;-80
2021/11/11 06:19:58;;;;;;;39.03;17.92;;;;;;;0.27;100.00;98419.25;5075998;28;20079;-80
2021/11/11 06:22:24;;;;;;;42.80;19.13;;;;;;;0.30;100.00;98432.91;5095016;28;20504;-80
2021/11/11 06:24:51;;;;;;;48.60;19.65;;;;;;;0.35;100.00;98435.72;5076663;28;20097;-81
2021/11/11 06:27:18;;;;;;;52.22;23.27;;;;;;;0.31;100.00;98431.06;5076100;28;20044;-81
2021/11/11 06:29:45;;;;;;;56.95;23.88;;;;;;;0.34;100.00;98427.94;5077422;28;20507;-80
2021/11/11 06:32:11;;;;;;;71.88;27.83;;;;;;;0.30;100.00;98435.59;5096391;28;20079;-81
2021/11/11 06:34:58;;;;;;;76.25;29.25;;;;;;;0.35;100.00;98440.22;5078984;28;20056;-80
2021/11/11 06:37:24;;;;;;;66.97;25.60;;;;;;;0.34;100.00;98422.59;5075745;28;20545;-80
2021/11/11 06:39:51;;;;;;;58.13;24.27;;;;;;;0.41;100.00;98433.97;5075938;28;20079;-81
2021/11/11 06:42:19;;;;;;;63.40;25.80;;;;;;;0.39;100.00;98428.06;5077354;28;20405;-79
2021/11/11 06:44:48;;;;;;;57.65;24.67;;;;;;;0.48;100.00;98424.84;5077257;28;20066;-81
2021/11/11 06:47:19;;;;;;;65.57;25.33;;;;;;;0.55;100.00;98435.38;5078094;28;20083;-80
2021/11/11 06:49:54;;;;;;;64.55;25.42;;;;;;;0.69;100.00;98434.09;5069298;28;20040;-81
2021/11/11 06:52:21;;;;;;;62.78;24.77;;;;;;;0.55;100.00;98430.84;5075386;28;20048;-83
2021/11/11 06:54:49;;;;;;;61.70;26.05;;;;;;;0.57;100.00;98443.94;5076569;28;20096;-80
2021/11/11 06:57:16;;;;;;;68.80;28.65;;;;;;;0.62;100.00;98434.22;5076216;28;20048;-80
2021/11/11 06:59:44;;;;;;;96.97;36.33;;;;;;;0.51;100.00;98450.19;5075680;28;20059;-81
2021/11/11 07:02:10;;;;;;;117.80;43.67;;;;;;;0.62;100.00;98457.38;5076554;28;20048;-80
2021/11/11 07:04:37;;;;;;;167.35;57.60;;;;;;;0.74;100.00;98455.53;5076014;28;20121;-81
2021/11/11 07:07:05;;;;;;;129.07;46.20;;;;;;;0.70;100.00;98458.91;5074678;28;20042;-81
2021/11/11 07:09:32;;;;;;;129.88;45.42;;;;;;;0.75;100.00;98461.69;5076747;28;20460;-81
2021/11/11 07:11:59;;;;;;;120.63;45.97;;;;;;;0.85;100.00;98459.25;5094225;28;20091;-81
2021/11/11 07:14:26;;;;;;;134.70;47.05;;;;;;;0.92;100.00;98463.41;5076415;28;20059;-80
2021/11/11 07:16:53;;;;;;;137.02;48.50;;;;;;;1.10;100.00;98467.81;5076823;28;20063;-80
2021/11/11 07:19:20;;;;;;;114.22;43.60;;;;;;;1.15;100.00;98459.91;5076783;28;20226;-81
2021/11/11 07:21:51;;;;;;;106.57;40.63;;;;;;;1.27;100.00;98466.03;5077770;28;20066;-81
2021/11/11 07:24:21;;;;;;;87.65;34.30;;;;;;;1.36;100.00;98456.63;5076822;28;20044;-80
2021/11/11 07:27:20;;;;;;;86.80;33.47;;;;;;;1.32;100.00;98436.78;5079381;28;20090;-82
2021/11/11 07:29:57;;;;;;;71.57;29.70;;;;;;;1.61;100.00;98461.66;5078598;28;20052;-83
2021/11/11 07:32:42;;;;;;;;;;;;;;;;;;;;;
2021/11/11 07:35:18;;;;;;;77.93;30.52;;;;;;;1.77;100.00;98448.38;5099081;28;20047;-81
2021/11/11 07:37:53;;;;;;;60.20;26.35;;;;;;;1.96;100.00;98461.53;5077061;28;20071;-83
2021/11/11 07:40:25;;;;;;;51.53;23.95;;;;;;;1.97;100.00;98444.44;5076526;28;20040;-81
2021/11/11 07:43:17;;;;;;;52.72;21.08;;;;;;;2.26;100.00;98486.09;5077246;28;20040;-82
2021/11/11 07:45:50;;;;;;;58.95;24.75;;;;;;;2.23;100.00;98470.56;5077562;28;20048;-82
2021/11/11 07:48:18;;;;;;;54.03;23.80;;;;;;;2.20;100.00;98455.81;5077385;28;20048;-80
2021/11/11 07:50:55;;;;;;;51.45;22.38;;;;;;;2.32;100.00;98469.91;5093636;28;20564;-83
2021/11/11 07:53:23;;;;;;;52.58;21.55;;;;;;;2.67;100.00;98482.25;5074628;28;20059;-81
2021/11/11 07:55:51;;;;;;;50.78;22.40;;;;;;;2.75;100.00;98455.09;5074329;28;20145;-82
2021/11/11 08:10:06;;;;;;;64.85;30.27;;;;;;;5.73;100.00;98467.59;5042476;28;20455;-81
2021/11/11 08:13:38;;;;;;;99.88;37.47;;;;;;;6.61;100.00;98433.38;4974478;28;20052;-83
2021/11/11 08:16:56;;;;;;;139.38;50.60;;;;;;;7.70;100.00;98443.38;4977236;28;20576;-81
2021/11/11 08:19:56;;;;;;;72.05;30.05;;;;;;;8.14;100.00;98444.22;4975383;28;20058;-79
2021/11/11 08:22:29;;;;;;;36.10;17.70;;;;;;;8.65;100.00;98426.59;4972866;28;20080;-82
2021/11/11 08:25:08;;;;;;;26.13;13.70;;;;;;;10.19;100.00;98452.47;4972970;28;20455;-81
2021/11/11 08:28:00;;;;;;;50.53;22.90;;;;;;;10.32;100.00;98444.44;4989462;28;20050;-81
2021/11/11 08:30:46;;;;;;;106.75;40.47;;;;;;;10.73;100.00;98436.50;4974636;28;20174;-81
2021/11/11 08:33:23;;;;;;;39.00;18.40;;;;;;;10.85;100.00;98431.41;4967914;28;20113;-80
2021/11/11 08:35:54;;;;;;;29.02;15.48;;;;;;;11.45;100.00;98467.47;4989064;28;20489;-82
2021/11/11 08:38:22;;;;;;;37.20;21.10;;;;;;;11.86;100.00;98429.50;4999020;28;20054;-80
2021/11/11 08:40:52;;;;;;;32.38;17.98;;;;;;;11.88;100.00;98427.28;5028189;28;20077;-82
2021/11/11 08:43:24;;;;;;;59.03;28.77;;;;;;;12.15;100.00;98442.72;5049071;28;20384;-80
2021/11/11 08:45:51;;;;;;;39.42;18.67;;;;;;;12.75;100.00;98441.31;5072954;28;20517;-83
2021/11/11 08:48:20;;;;;;;24.02;10.73;;;;;;;12.71;97.93;98417.78;5091885;28;20448;-80
2021/11/11 08:50:51;;;;;;;20.45;10.50;;;;;;;13.29;97.08;98432.06;5091313;28;20081;-81
2021/11/11 08:53:22;;;;;;;25.52;10.27;;;;;;;13.61;89.13;98434.44;5067214;28;20526;-81
2021/11/11 08:55:49;;;;;;;19.40;10.15;;;;;;;14.28;80.63;98439.56;5072454;28;20146;-82
2021/11/11 08:58:18;;;;;;;26.45;10.00;;;;;;;13.77;80.13;98450.34;5071884;28;20036;-80
2021/11/11 09:01:00;;;;;;;20.98;10.52;;;;;;;14.49;73.28;98437.03;5073125;28;20447;-83
2021/11/11 09:03:43;;;;;;;20.88;10.63;;;;;;;14.91;68.92;98450.66;5072757;28;20450;-81
2021/11/11 09:06:13;;;;;;;19.23;10.65;;;;;;;14.87;69.52;98437.97;5072897;28;20059;-81
2021/11/11 09:08:42;;;;;;;21.23;11.20;;;;;;;13.77;81.92;98426.66;5073169;23;20421;-82
2021/11/11 09:15:42;;;;;;;;;;;;;;;;;;;;;
2021/11/11 09:18:19;;;;;;;19.33;11.23;;;;;;;17.25;53.37;98420.50;5004789;28;19928;-82
2021/11/11 09:21:16;;;;;;;25.75;14.45;;;;;;;15.53;57.65;98422.91;4973843;28;20527;-81
2021/11/11 09:24:19;;;;;;;25.80;12.23;;;;;;;16.71;56.20;98399.81;4973026;28;20054;-83
2021/11/11 09:27:07;;;;;;;21.95;12.00;;;;;;;18.33;51.82;98410.69;4974377;28;20141;-83
2021/11/11 09:29:46;;;;;;;21.55;12.40;;;;;;;18.31;50.56;98429.44;4989440;28;20049;-82
2021/11/11 09:32:53;;;;;;;25.25;13.15;;;;;;;18.50;51.32;98421.44;4977901;28;20061;-83
2021/11/11 09:35:37;;;;;;;23.77;12.55;;;;;;;18.76;51.01;98409.22;4977328;28;20055;-83
2021/11/11 09:42:45;;;;;;;25.52;13.43;;;;;;;16.94;55.06;98409.22;4901540;29;20079;-81
2021/11/11 09:45:22;;;;;;;22.98;13.35;;;;;;;18.01;52.84;98409.69;4901197;29;20070;-83
2021/11/11 09:48:01;;;;;;;20.08;12.68;;;;;;;18.02;51.32;98430.50;4954605;28;20145;-81
2021/11/11 09:51:14;;;;;;;22.13;12.82;;;;;;;17.76;50.39;98424.56;4977390;28;20076;-80
2021/11/11 09:54:22;;;;;;;20.17;13.13;;;;;;;18.40;49.88;98419.13;5053856;28;20052;-83
2021/11/11 10:00:11;;;;;;;19.30;12.10;;;;;;;17.50;50.52;98415.84;5054609;28;20037;-81
2021/11/11 10:02:44;;;;;;;22.90;12.27;;;;;;;17.59;50.14;98424.00;5054740;28;20060;-80
2021/11/11 10:05:21;;;;;;;20.38;12.65;;;;;;;17.95;50.80;98435.75;5046317;28;20044;-83
2021/11/11 10:07:54;;;;;;;20.02;13.25;;;;;;;16.98;51.92;98412.88;5052013;28;20052;-82
2021/11/11 10:10:57;;;;;;;;;;;;;;;;;;;;;
2021/11/11 10:13:28;;;;;;;23.83;13.23;;;;;;;16.63;53.89;98420.63;5047592;28;20409;-80
2021/11/11 10:16:18;;;;;;;23.65;13.88;;;;;;;17.22;52.42;98415.69;5052952;28;20053;-81
2021/11/11 10:19:06;;;;;;;25.27;13.15;;;;;;;17.43;51.82;98423.81;5246035;23;20554;-83
2021/11/11 10:21:56;;;;;;;27.85;13.98;;;;;;;16.62;54.71;98435.41;5075775;28;20052;-81
2021/11/11 10:24:29;;;;;;;21.45;12.90;;;;;;;-141.50;100.00;63355.56;5075626;28;20055;-79
2021/11/11 10:27:02;;;;;;;22.80;12.88;;;;;;;17.83;51.03;98437.72;5092808;28;20051;-82
2021/11/11 10:29:41;;;;;;;20.13;12.75;;;;;;;18.03;50.09;98429.34;5093095;28;20433;-81
2021/11/11 10:32:42;;;;;;;23.33;13.77;;;;;;;17.05;52.05;98434.22;5093281;28;20056;-79
2021/11/11 10:35:17;;;;;;;24.38;13.80;;;;;;;16.35;54.94;98441.41;5090702;23;20597;-82
2021/11/11 10:37:49;;;;;;;29.17;14.50;;;;;;;16.84;52.83;98434.28;5081381;28;20105;-82
2021/11/11 10:40:22;;;;;;;30.05;13.88;;;;;;;16.74;53.18;98437.41;5079232;28;20040;-83
2021/11/11 10:42:52;;;;;;;31.33;15.27;;;;;;;16.05;54.75;98446.09;5081241;28;20063;-82
2021/11/11 10:45:31;;;;;;;29.67;15.27;;;;;;;16.92;53.88;98435.31;5063564;28;20474;-82
2021/11/11 10:48:05;;;;;;;22.58;13.15;;;;;;;17.35;51.95;98449.34;5079535;28;20050;-82
2021/11/11 10:50:42;;;;;;;25.02;13.40;;;;;;;17.36;52.70;98440.00;5078907;28;20467;-81
2021/11/11 10:53:11;;;;;;;25.20;13.68;;;;;;;17.40;51.13;98433.50;5081365;28;20074;-84
2021/11/11 10:55:40;;;;;;;30.98;13.48;;;;;;;17.90;49.76;98436.00;5084136;28;20110;-84
2021/11/11 10:58:10;;;;;;;25.27;13.52;;;;;;;17.06;51.44;98422.94;5080103;28;20087;-82
2021/11/11 11:00:58;;;;;;;32.92;14.10;;;;;;;17.71;49.56;98440.41;5076018;28;20090;-82
2021/11/11 11:03:30;;;;;;;23.45;13.23;;;;;;;18.08;48.50;98420.09;5080446;28;20052;-82
2021/11/11 11:06:05;;;;;;;21.90;12.93;;;;;;;18.03;47.83;98423.88;5080101;28;20052;-83
2021/11/11 11:08:33;;;;;;;21.43;13.27;;;;;;;17.38;50.59;98424.84;5059311;28;20045;-82
2021/11/11 11:11:07;;;;;;;28.17;13.80;;;;;;;17.86;48.44;98418.63;5075463;28;20303;-82
2021/11/11 11:13:45;;;;;;;22.63;12.95;;;;;;;17.70;48.89;98425.94;5077500;28;20048;-82
2021/11/11 11:16:13;;;;;;;22.10;12.98;;;;;;;17.56;49.23;98424.66;5057911;28;20099;-82
2021/11/11 11:18:45;;;;;;;24.05;13.50;;;;;;;17.70;49.31;98422.41;5073970;28;20147;-83
2021/11/11 11:21:20;;;;;;;21.13;12.88;;;;;;;18.35;48.37;98418.59;5057082;28;20535;-83
2021/11/11 11:23:59;;;;;;;22.25;12.80;;;;;;;-141.50;100.00;63355.56;5074905;28;20079;-80
2021/11/11 11:26:31;;;;;;;20.83;12.50;;;;;;;-141.50;100.00;63355.56;5073110;28;20109;-82
2021/11/11 11:29:20;;;;;;;20.83;12.48;;;;;;;-141.50;100.00;63355.56;5076018;28;20053;-81
2021/11/11 11:32:09;;;;;;;19.10;12.57;;;;;;;-141.50;100.00;63355.56;5075944;28;20048;-82
2021/11/11 11:34:37;;;;;;;21.17;12.85;;;;;;;-141.50;100.00;63355.56;5080217;28;20049;-82
2021/11/11 11:37:07;;;;;;;20.95;12.70;;;;;;;-141.50;100.00;63355.56;5087153;28;20654;-83
2021/11/11 11:39:44;;;;;;;18.92;12.70;;;;;;;-141.50;100.00;63355.56;5075014;28;20049;-81
2021/11/11 11:42:15;;;;;;;17.77;12.05;;;;;;;-141.50;100.00;63355.56;5072170;28;20143;-83
2021/11/11 11:44:51;;;;;;;20.38;12.70;;;;;;;-141.50;100.00;63355.56;5060041;28;20079;-82
2021/11/11 11:50:04;;;;;;;19.95;12.50;;;;;;;-141.50;100.00;63355.56;5071464;28;20102;-82
2021/11/11 11:52:33;;;;;;;17.17;12.30;;;;;;;-141.50;100.00;63355.56;5071289;28;20056;-83
2021/11/11 11:55:09;;;;;;;21.83;12.48;;;;;;;-141.50;100.00;63355.56;5070659;28;20052;-82
2021/11/11 11:57:53;;;;;;;17.95;12.25;;;;;;;-141.50;100.00;63355.56;5072567;28;20496;-81
2021/11/11 12:03:19;;;;;;;20.05;12.63;;;;;;;-141.50;100.00;63355.56;5095214;23;20052;-84
2021/11/11 12:08:40;;;;;;;19.05;12.40;;;;;;;-141.50;100.00;63355.56;5090600;28;20051;-85
2021/11/11 12:12:26;;;;;;;17.40;11.35;;;;;;;-141.50;100.00;63355.56;5072361;28;20051;-84
2021/11/11 12:16:57;;;;;;;19.42;12.65;;;;;;;-141.50;100.00;63355.56;5091112;28;20048;-84
2021/11/11 12:28:45;;;;;;;18.75;13.43;;;;;;;-141.50;100.00;63355.56;5091119;28;20056;-85
2021/11/11 12:39:45;;;;;;;26.27;15.15;;;;;;;-141.50;100.00;63355.56;5099458;28;20047;-84
2021/11/11 12:42:31;;;;;;;27.48;15.27;;;;;;;-141.50;100.00;63355.56;5092492;28;20058;-84
2021/11/11 12:45:08;;;;;;;24.58;15.02;;;;;;;-141.50;100.00;63355.56;5095322;28;20052;-83
2021/11/11 12:47:48;;;;;;;26.73;15.05;;;;;;;-141.50;100.00;63355.56;5093385;28;20133;-84
2021/11/11 12:50:40;;;;;;;28.35;15.98;;;;;;;-141.50;100.00;63355.56;5091669;28;20097;-84
2021/11/11 12:53:19;;;;;;;29.00;16.17;;;;;;;-141.50;100.00;63355.56;5071724;28;20059;-84
2021/11/11 12:56:13;;;;;;;28.35;15.65;;;;;;;-141.50;100.00;63355.56;5090196;28;20047;-85
2021/11/11 12:58:50;;;;;;;26.42;16.02;;;;;;;-141.50;100.00;63355.56;5071925;28;20088;-84
2021/11/11 13:01:25;;;;;;;36.50;17.52;;;;;;;-141.50;100.00;63355.56;5071720;28;20132;-84
2021/11/11 13:03:58;;;;;;;31.92;17.05;;;;;;;-141.50;100.00;63355.56;5087950;28;20077;-85
2021/11/11 13:06:41;;;;;;;30.08;17.17;;;;;;;-141.50;100.00;63355.56;5071170;28;20044;-86
2021/11/11 13:09:10;;;;;;;30.50;17.55;;;;;;;-141.50;100.00;63355.56;5071021;28;20052;-85
2021/11/11 13:11:44;;;;;;;29.23;16.27;;;;;;;-141.50;100.00;63355.56;5071960;28;20403;-85
2021/11/11 13:14:21;;;;;;;33.22;17.55;;;;;;;-141.50;100.00;63355.56;5089087;28;20052;-86
2021/11/11 13:16:54;;;;;;;31.50;17.48;;;;;;;-141.50;100.00;63355.56;5091085;28;20480;-83
2021/11/11 13:19:31;;;;;;;30.63;17.85;;;;;;;-141.50;100.00;63355.56;5071117;28;20087;-84
2021/11/11 13:22:07;;;;;;;33.88;18.50;;;;;;;-141.50;100.00;63355.56;5089274;28;20487;-85
2021/11/11 14:01:40;;;;;;;41.05;19.52;;;;;;;-141.50;100.00;63355.56;5087925;28;20056;-85
2021/11/11 14:04:48;;;;;;;37.45;18.65;;;;;;;-141.50;100.00;63355.56;5069221;28;20212;-86
2021/11/11 15:14:19;;;;;;;44.28;21.83;;;;;;;-141.50;100.00;63355.56;5091110;28;20123;-85
2021/11/11 15:18:23;;;;;;;38.70;22.63;;;;;;;-141.50;100.00;63355.56;5076019;28;20045;-85